createdAt,value
2017-03-15T05:06:15.640Z,8.16
2017-03-15T05:06:57.264Z,8.23
2017-03-15T05:07:37.920Z,8.15
2017-03-15T05:08:18.562Z,8.13
2017-03-15T05:09:01.171Z,8.13
2017-03-15T05:09:41.814Z,8.16
2017-03-15T05:10:23.490Z,8.19
2017-03-15T05:11:08.662Z,8.13
2017-03-15T05:11:49.303Z,8.18
2017-03-15T05:12:30.990Z,8.19
2017-03-15T05:13:11.622Z,8.18
2017-03-15T05:13:57.232Z,8.13
2017-03-15T05:14:37.862Z,8.15
2017-03-15T05:15:18.501Z,8.13
2017-03-15T05:15:59.103Z,8.13
2017-03-15T05:16:39.697Z,8.1
2017-03-15T05:17:20.258Z,8.15
2017-03-15T05:18:00.906Z,8.15
2017-03-15T05:18:41.502Z,8.19
2017-03-15T05:19:23.133Z,8.13
2017-03-15T05:20:03.688Z,8.1
2017-03-15T05:20:44.339Z,8.1
2017-03-15T05:21:25.927Z,8.15
2017-03-15T05:22:08.636Z,8.16
2017-03-15T05:22:49.281Z,8.09
2017-03-15T05:23:29.928Z,8.12
2017-03-15T05:24:10.588Z,8.13
2017-03-15T05:24:51.241Z,8.09
2017-03-15T05:25:31.893Z,8.12
2017-03-15T05:26:14.612Z,8.1
2017-03-15T05:26:55.178Z,8.15
2017-03-15T05:27:36.823Z,8.1
2017-03-15T05:28:17.463Z,8.09
2017-03-15T05:28:58.120Z,8.19
2017-03-15T05:29:38.798Z,8.16
2017-03-15T05:30:20.453Z,8.13
2017-03-15T05:31:01.121Z,8.1
2017-03-15T05:31:42.795Z,8.1
2017-03-15T05:32:24.461Z,8.1
2017-03-15T05:33:05.122Z,8.13
2017-03-15T05:33:45.761Z,8.13
2017-03-15T05:34:28.014Z,8.16
2017-03-15T05:35:08.603Z,8.19
2017-03-15T05:35:51.225Z,8.12
2017-03-15T05:36:31.866Z,8.18
2017-03-15T05:37:12.519Z,8.19
2017-03-15T05:37:54.201Z,8.15
2017-03-15T05:38:34.843Z,8.19
2017-03-15T05:39:21.236Z,8.16
2017-03-15T05:40:02.908Z,8.16
2017-03-15T05:40:43.564Z,8.12
2017-03-15T05:41:28.905Z,8.16
2017-03-15T05:42:09.444Z,8.15
2017-03-15T05:42:50.131Z,8.16
2017-03-15T05:43:37.522Z,8.13
2017-03-15T05:44:18.109Z,8.18
2017-03-15T05:44:58.753Z,8.13
2017-03-15T05:45:41.427Z,8.31
2017-03-15T05:46:22.075Z,8.13
2017-03-15T05:47:02.724Z,8.15
2017-03-15T05:47:44.409Z,8.33
2017-03-15T05:48:26.193Z,8.23
2017-03-15T05:49:12.371Z,8.23
2017-03-15T05:49:53.026Z,8.28
2017-03-15T05:50:33.593Z,8.2
2017-03-15T05:51:20.190Z,8.24
2017-03-15T05:52:00.853Z,8.16
2017-03-15T05:52:47.218Z,8.27
2017-03-15T05:53:28.907Z,8.27
2017-03-15T05:54:09.552Z,8.23
2017-03-15T05:54:50.212Z,8.28
2017-03-15T05:55:30.835Z,8.26
2017-03-15T05:56:11.520Z,8.26
2017-03-15T05:56:52.158Z,8.28
2017-03-15T05:57:32.824Z,8.24
2017-03-15T05:58:13.477Z,8.33
2017-03-15T05:58:54.130Z,8.28
2017-03-15T05:59:34.789Z,8.33
2017-03-15T06:00:15.423Z,8.27
2017-03-15T06:00:57.116Z,8.33
2017-03-15T06:01:37.698Z,8.27
2017-03-15T06:02:18.276Z,8.34
2017-03-15T06:03:03.614Z,8.38
2017-03-15T06:03:45.215Z,8.34
2017-03-15T06:04:25.782Z,8.34
2017-03-15T06:05:06.364Z,8.41
2017-03-15T06:05:46.925Z,8.37
2017-03-15T06:06:27.481Z,8.37
2017-03-15T06:07:08.042Z,8.37
2017-03-15T06:07:48.613Z,8.37
2017-03-15T06:08:29.188Z,8.37
2017-03-15T06:09:09.757Z,8.41
2017-03-15T06:09:50.362Z,8.45
2017-03-15T06:10:30.908Z,8.37
2017-03-15T06:11:11.473Z,8.49
2017-03-15T06:11:52.036Z,8.42
2017-03-15T06:12:32.606Z,8.48
2017-03-15T06:13:15.190Z,8.53
2017-03-15T06:13:55.786Z,8.49
2017-03-15T06:14:36.367Z,8.49
2017-03-15T06:15:16.930Z,8.49
2017-03-15T06:15:57.515Z,8.46
2017-03-15T06:16:38.094Z,8.45
2017-03-15T06:17:18.676Z,8.48
2017-03-15T06:17:59.267Z,8.49
2017-03-15T06:18:39.855Z,8.49
2017-03-15T06:19:20.423Z,8.53
2017-03-15T06:20:00.993Z,8.48
2017-03-15T06:20:41.581Z,8.41
2017-03-15T06:21:22.153Z,8.42
2017-03-15T06:22:02.733Z,8.52
2017-03-15T06:22:43.411Z,8.44
2017-03-15T06:23:24.071Z,8.44
2017-03-15T06:24:04.645Z,8.42
2017-03-15T06:24:45.214Z,8.36
2017-03-15T06:25:25.782Z,8.36
2017-03-15T06:26:06.349Z,8.37
2017-03-15T06:26:46.934Z,8.38
2017-03-15T06:27:27.516Z,8.37
2017-03-15T06:28:08.078Z,8.37
2017-03-15T06:28:48.640Z,8.38
2017-03-15T06:29:29.305Z,8.37
2017-03-15T06:30:09.875Z,8.42
2017-03-15T06:30:50.455Z,8.37
2017-03-15T06:31:31.024Z,8.44
2017-03-15T06:32:11.590Z,8.45
2017-03-15T06:32:52.162Z,8.38
2017-03-15T06:33:32.729Z,8.44
2017-03-15T06:34:13.329Z,8.51
2017-03-15T06:34:53.893Z,8.53
2017-03-15T06:35:34.456Z,8.52
2017-03-15T06:36:15.120Z,8.46
2017-03-15T06:36:55.718Z,8.63
2017-03-15T06:37:36.300Z,8.73
2017-03-15T06:38:16.866Z,8.69
2017-03-15T06:38:57.445Z,8.69
2017-03-15T06:39:38.038Z,8.76
2017-03-15T06:40:18.596Z,8.79
2017-03-15T06:40:59.171Z,8.85
2017-03-15T06:41:40.756Z,8.81
2017-03-15T06:42:21.328Z,8.94
2017-03-15T06:43:01.908Z,9.02
2017-03-15T06:43:42.485Z,8.95
2017-03-15T06:44:23.050Z,8.91
2017-03-15T06:45:03.722Z,9.03
2017-03-15T06:45:46.261Z,8.97
2017-03-15T06:46:26.824Z,8.99
2017-03-15T06:47:08.403Z,9
2017-03-15T06:47:48.973Z,9.1
2017-03-15T06:48:29.527Z,9.04
2017-03-15T06:49:10.135Z,9.08
2017-03-15T06:49:50.731Z,9.08
2017-03-15T06:50:31.411Z,9.1
2017-03-15T06:51:12.092Z,9.06
2017-03-15T06:51:52.659Z,9.03
2017-03-15T06:52:33.342Z,9.04
2017-03-15T06:53:13.948Z,9.13
2017-03-15T06:53:54.533Z,9.11
2017-03-15T06:54:35.102Z,9.08
2017-03-15T06:55:15.676Z,9.14
2017-03-15T06:55:56.254Z,9.1
2017-03-15T06:56:36.828Z,9.13
2017-03-15T06:57:17.425Z,9.08
2017-03-15T06:57:58.972Z,9.13
2017-03-15T06:58:39.551Z,9.18
2017-03-15T06:59:20.131Z,9.11
2017-03-15T07:00:00.699Z,9.1
2017-03-15T07:00:41.303Z,9.14
2017-03-15T07:01:22.967Z,9.1
2017-03-15T07:02:03.539Z,9.18
2017-03-15T07:02:44.125Z,9.13
2017-03-15T07:03:24.710Z,9.16
2017-03-15T07:04:05.388Z,9.11
2017-03-15T07:04:45.972Z,9.14
2017-03-15T07:05:26.547Z,9.18
2017-03-15T07:06:08.116Z,9.16
2017-03-15T07:06:48.689Z,9.06
2017-03-15T07:07:29.265Z,9.13
2017-03-15T07:08:09.846Z,9.08
2017-03-15T07:08:50.612Z,9.16
2017-03-15T07:09:32.224Z,9.19
2017-03-15T07:10:12.907Z,9.18
2017-03-15T07:10:54.577Z,9.22
2017-03-15T07:11:35.212Z,9.29
2017-03-15T07:12:16.988Z,9.26
2017-03-15T07:12:57.643Z,9.25
2017-03-15T07:13:38.328Z,9.29
2017-03-15T07:14:18.941Z,9.4
2017-03-15T07:14:59.558Z,9.34
2017-03-15T07:15:40.249Z,9.41
2017-03-15T07:16:20.842Z,9.39
2017-03-15T07:17:01.422Z,9.41
2017-03-15T07:17:42.117Z,9.59
2017-03-15T07:18:22.714Z,9.48
2017-03-15T07:19:03.317Z,9.51
2017-03-15T07:19:43.915Z,9.61
2017-03-15T07:20:25.483Z,9.64
2017-03-15T07:21:06.145Z,9.62
2017-03-15T07:21:51.650Z,9.62
2017-03-15T07:22:39.125Z,9.65
2017-03-15T07:23:20.712Z,9.65
2017-03-15T07:24:01.396Z,9.68
2017-03-15T07:24:41.966Z,9.62
2017-03-15T07:25:23.519Z,9.73
2017-03-15T07:26:08.656Z,9.76
2017-03-15T07:26:50.276Z,9.77
2017-03-15T07:27:31.835Z,9.74
2017-03-15T07:28:12.409Z,9.79
2017-03-15T07:28:52.992Z,9.83
2017-03-15T07:29:34.555Z,9.76
2017-03-15T07:30:21.638Z,9.76
2017-03-15T07:31:02.187Z,9.82
2017-03-15T07:31:42.803Z,9.77
2017-03-15T07:32:23.384Z,9.79
2017-03-15T07:33:03.988Z,9.72
2017-03-15T07:33:45.580Z,9.83
2017-03-15T07:34:26.107Z,9.82
2017-03-15T07:35:07.680Z,9.84
2017-03-15T07:35:48.250Z,9.84
2017-03-15T07:36:28.817Z,9.83
2017-03-15T07:37:10.397Z,9.87
2017-03-15T07:37:50.980Z,9.94
2017-03-15T07:38:31.586Z,9.82
2017-03-15T07:39:12.165Z,9.95
2017-03-15T07:39:54.763Z,9.99
2017-03-15T07:40:35.332Z,9.97
2017-03-15T07:41:16.893Z,9.95
2017-03-15T07:41:57.451Z,9.95
2017-03-15T07:42:39.024Z,9.91
2017-03-15T07:43:21.698Z,9.97
2017-03-15T07:44:04.277Z,9.99
2017-03-15T07:44:44.841Z,10.07
2017-03-15T07:45:25.412Z,9.98
2017-03-15T07:46:06.011Z,9.94
2017-03-15T07:46:46.582Z,9.95
2017-03-15T07:47:27.140Z,9.92
2017-03-15T07:48:07.749Z,9.97
2017-03-15T07:48:48.339Z,9.95
2017-03-15T07:49:28.914Z,9.97
2017-03-15T07:50:09.521Z,9.99
2017-03-15T07:50:50.082Z,10.02
2017-03-15T07:51:30.653Z,9.98
2017-03-15T07:52:12.229Z,9.95
2017-03-15T07:52:52.780Z,9.99
2017-03-15T07:53:33.369Z,9.92
2017-03-15T07:54:13.925Z,9.95
2017-03-15T07:54:54.471Z,10.02
2017-03-15T07:55:36.070Z,9.95
2017-03-15T07:56:16.631Z,9.98
2017-03-15T07:56:57.185Z,9.98
2017-03-15T07:57:37.751Z,10.04
2017-03-15T07:58:19.324Z,9.97
2017-03-15T07:58:59.874Z,9.95
2017-03-15T07:59:40.454Z,10.01
2017-03-15T08:00:21.005Z,10.1
2017-03-15T08:01:01.602Z,10.02
2017-03-15T08:01:42.189Z,10.07
2017-03-15T08:02:22.770Z,10.12
2017-03-15T08:03:03.338Z,10.16
2017-03-15T08:03:43.910Z,10.13
2017-03-15T08:04:24.487Z,10.19
2017-03-15T08:05:06.090Z,10.26
2017-03-15T08:05:46.682Z,10.26
2017-03-15T08:06:27.244Z,10.28
2017-03-15T08:07:07.810Z,10.2
2017-03-15T08:07:48.373Z,10.23
2017-03-15T08:08:29.961Z,10.22
2017-03-15T08:09:10.535Z,10.25
2017-03-15T08:09:52.197Z,10.25
2017-03-15T08:10:33.768Z,10.23
2017-03-15T08:11:14.337Z,10.16
2017-03-15T08:11:54.920Z,10.23
2017-03-15T08:12:36.551Z,10.2
2017-03-15T08:13:17.121Z,10.23
2017-03-15T08:13:57.690Z,10.3
2017-03-15T08:14:39.246Z,10.3
2017-03-15T08:15:19.851Z,10.26
2017-03-15T08:16:00.408Z,10.2
2017-03-15T08:16:40.949Z,10.2
2017-03-15T08:17:21.544Z,10.28
2017-03-15T08:18:03.110Z,10.26
2017-03-15T08:18:43.679Z,10.2
2017-03-15T08:19:24.217Z,10.33
2017-03-15T08:20:05.798Z,10.33
2017-03-15T08:20:48.359Z,10.4
2017-03-15T08:21:28.924Z,10.38
2017-03-15T08:22:09.471Z,10.35
2017-03-15T08:22:51.027Z,10.42
2017-03-15T08:23:32.596Z,10.37
2017-03-15T08:24:13.191Z,10.38
2017-03-15T08:24:53.751Z,10.33
2017-03-15T08:25:34.334Z,10.35
2017-03-15T08:26:16.900Z,10.4
2017-03-15T08:26:57.476Z,10.4
2017-03-15T08:27:38.042Z,10.4
2017-03-15T08:28:18.618Z,10.37
2017-03-15T08:29:00.187Z,10.42
2017-03-15T08:29:40.761Z,10.49
2017-03-15T08:30:23.354Z,10.49
2017-03-15T08:31:03.916Z,10.53
2017-03-15T08:31:45.490Z,10.53
2017-03-15T08:32:26.042Z,10.53
2017-03-15T08:33:06.608Z,10.64
2017-03-15T08:33:48.190Z,10.64
2017-03-15T08:34:28.744Z,10.61
2017-03-15T08:35:09.314Z,10.61
2017-03-15T08:35:49.899Z,10.71
2017-03-15T08:36:30.544Z,10.64
2017-03-15T08:37:11.129Z,10.69
2017-03-15T08:37:51.694Z,10.63
2017-03-15T08:38:32.260Z,10.71
2017-03-15T08:39:12.836Z,10.68
2017-03-15T08:39:53.409Z,10.68
2017-03-15T08:40:34.972Z,10.72
2017-03-15T08:41:15.540Z,10.76
2017-03-15T08:41:56.125Z,10.67
2017-03-15T08:42:36.698Z,10.72
2017-03-15T08:43:17.268Z,10.79
2017-03-15T08:43:57.846Z,10.81
2017-03-15T08:44:38.435Z,10.79
2017-03-15T08:45:19.045Z,10.81
2017-03-15T08:46:01.616Z,10.9
2017-03-15T08:46:42.193Z,10.94
2017-03-15T08:47:22.771Z,10.97
2017-03-15T08:48:04.353Z,11
2017-03-15T08:48:44.919Z,11.08
2017-03-15T08:49:25.496Z,11.08
2017-03-15T08:50:06.077Z,11.15
2017-03-15T08:50:47.668Z,11.23
2017-03-15T08:51:28.228Z,11.23
2017-03-15T08:52:08.807Z,11.25
2017-03-15T08:52:49.400Z,11.3
2017-03-15T08:53:31.979Z,11.41
2017-03-15T08:54:13.551Z,11.4
2017-03-15T08:54:55.126Z,11.44
2017-03-15T08:55:35.699Z,11.44
2017-03-15T08:56:16.280Z,11.48
2017-03-15T08:56:56.830Z,11.51
2017-03-15T08:57:37.418Z,11.48
2017-03-15T08:58:17.982Z,11.52
2017-03-15T08:58:58.551Z,11.55
2017-03-15T08:59:40.124Z,11.57
2017-03-15T09:00:21.733Z,11.51
2017-03-15T09:01:03.306Z,11.47
2017-03-15T09:01:43.895Z,11.52
2017-03-15T09:02:24.477Z,11.48
2017-03-15T09:03:05.071Z,11.57
2017-03-15T09:03:45.651Z,11.51
2017-03-15T09:04:26.202Z,11.54
2017-03-15T09:05:06.753Z,11.48
2017-03-15T09:05:48.336Z,11.52
2017-03-15T09:06:28.888Z,11.47
2017-03-15T09:07:10.468Z,11.47
2017-03-15T09:07:52.047Z,11.44
2017-03-15T09:08:32.610Z,11.48
2017-03-15T09:09:14.206Z,11.52
2017-03-15T09:09:54.758Z,11.48
2017-03-15T09:10:35.361Z,11.4
2017-03-15T09:11:15.939Z,11.51
2017-03-15T09:11:56.501Z,11.5
2017-03-15T09:12:37.090Z,11.44
2017-03-15T09:13:17.674Z,11.52
2017-03-15T09:13:58.239Z,11.55
2017-03-15T09:14:40.819Z,11.45
2017-03-15T09:15:21.395Z,11.44
2017-03-15T09:16:01.962Z,11.52
2017-03-15T09:16:42.545Z,11.52
2017-03-15T09:17:23.115Z,11.59
2017-03-15T09:18:03.687Z,11.52
2017-03-15T09:18:44.259Z,11.57
2017-03-15T09:19:24.909Z,11.62
2017-03-15T09:20:05.484Z,11.62
2017-03-15T09:20:46.067Z,11.62
2017-03-15T09:21:26.635Z,11.62
2017-03-15T09:22:07.225Z,11.66
2017-03-15T09:22:47.783Z,11.72
2017-03-15T09:23:29.363Z,11.65
2017-03-15T09:24:09.944Z,11.69
2017-03-15T09:24:50.521Z,11.65
2017-03-15T09:25:31.095Z,11.77
2017-03-15T09:26:11.666Z,11.8
2017-03-15T09:26:52.248Z,11.83
2017-03-15T09:27:32.832Z,11.95
2017-03-15T09:28:13.388Z,11.94
2017-03-15T09:28:54.032Z,12.04
2017-03-15T09:29:34.726Z,12.13
2017-03-15T09:30:15.341Z,12.22
2017-03-15T09:30:55.934Z,12.2
2017-03-15T09:31:36.558Z,12.28
2017-03-15T09:32:17.206Z,12.2
2017-03-15T09:32:57.779Z,12.24
2017-03-15T09:33:38.436Z,12.25
2017-03-15T09:34:19.061Z,12.24
2017-03-15T09:34:59.633Z,12.27
2017-03-15T09:35:40.285Z,12.36
2017-03-15T09:36:20.918Z,12.42
2017-03-15T09:37:01.499Z,12.42
2017-03-15T09:37:42.137Z,12.43
2017-03-15T09:38:22.716Z,12.35
2017-03-15T09:39:03.323Z,12.31
2017-03-15T09:39:43.902Z,12.4
2017-03-15T09:40:24.519Z,12.45
2017-03-15T09:41:05.101Z,12.39
2017-03-15T09:41:45.797Z,12.42
2017-03-15T09:42:26.407Z,12.55
2017-03-15T09:43:07.060Z,12.4
2017-03-15T09:43:47.705Z,12.46
2017-03-15T09:44:28.366Z,12.53
2017-03-15T09:45:09.020Z,12.45
2017-03-15T09:45:49.680Z,12.47
2017-03-15T09:46:30.329Z,12.61
2017-03-15T09:47:10.978Z,12.62
2017-03-15T09:47:51.642Z,12.6
2017-03-15T09:48:32.377Z,12.61
2017-03-15T09:49:13.041Z,12.58
2017-03-15T09:49:53.700Z,12.6
2017-03-15T09:50:34.344Z,12.72
2017-03-15T09:51:15.028Z,12.73
2017-03-15T09:51:56.707Z,12.73
2017-03-15T09:52:37.425Z,12.76
2017-03-15T09:53:17.978Z,12.83
2017-03-15T09:53:59.649Z,12.83
2017-03-15T09:54:40.236Z,12.9
2017-03-15T09:55:20.835Z,12.85
2017-03-15T09:56:01.438Z,12.9
2017-03-15T09:56:42.044Z,12.9
2017-03-15T09:57:22.697Z,12.85
2017-03-15T09:58:03.250Z,12.82
2017-03-15T09:58:43.925Z,12.78
2017-03-15T09:59:29.467Z,12.76
2017-03-15T10:00:10.011Z,12.76
2017-03-15T10:00:50.589Z,12.82
2017-03-15T10:01:36.955Z,12.78
2017-03-15T10:02:17.625Z,12.79
2017-03-15T10:02:58.262Z,12.8
2017-03-15T10:03:38.927Z,12.76
2017-03-15T10:04:19.569Z,12.72
2017-03-15T10:05:00.218Z,12.67
2017-03-15T10:05:40.870Z,12.64
2017-03-15T10:06:21.527Z,12.6
2017-03-15T10:07:02.179Z,12.58
2017-03-15T10:07:42.832Z,12.57
2017-03-15T10:08:23.494Z,12.55
2017-03-15T10:09:04.238Z,12.58
2017-03-15T10:09:44.896Z,12.6
2017-03-15T10:10:25.545Z,12.73
2017-03-15T10:11:06.198Z,12.79
2017-03-15T10:11:46.761Z,12.85
2017-03-15T10:12:27.430Z,12.95
2017-03-15T10:13:08.088Z,13.04
2017-03-15T10:13:48.717Z,13.08
2017-03-15T10:14:29.392Z,13.08
2017-03-15T10:15:10.038Z,13.13
2017-03-15T10:15:50.690Z,13.04
2017-03-15T10:16:31.345Z,13.09
2017-03-15T10:17:11.991Z,13.08
2017-03-15T10:17:52.664Z,13.04
2017-03-15T10:18:33.310Z,13.01
2017-03-15T10:19:13.950Z,12.94
2017-03-15T10:19:54.628Z,13.04
2017-03-15T10:20:35.269Z,13
2017-03-15T10:21:15.911Z,12.95
2017-03-15T10:21:56.503Z,12.95
2017-03-15T10:22:37.201Z,12.98
2017-03-15T10:23:17.769Z,12.91
2017-03-15T10:23:58.433Z,12.98
2017-03-15T10:24:39.008Z,12.86
2017-03-15T10:25:19.704Z,12.86
2017-03-15T10:26:00.274Z,12.87
2017-03-15T10:26:40.931Z,12.8
2017-03-15T10:27:21.574Z,12.82
2017-03-15T10:28:02.244Z,12.86
2017-03-15T10:28:42.894Z,12.83
2017-03-15T10:29:23.566Z,12.8
2017-03-15T10:30:04.183Z,12.83
2017-03-15T10:30:44.856Z,12.91
2017-03-15T10:31:25.510Z,12.79
2017-03-15T10:32:06.153Z,12.85
2017-03-15T10:32:46.808Z,12.87
2017-03-15T10:33:27.463Z,12.87
2017-03-15T10:34:08.115Z,12.98
2017-03-15T10:34:48.751Z,12.86
2017-03-15T10:35:29.421Z,12.87
2017-03-15T10:36:10.062Z,12.9
2017-03-15T10:36:50.759Z,12.86
2017-03-15T10:37:31.462Z,12.94
2017-03-15T10:38:12.032Z,12.91
2017-03-15T10:38:52.683Z,12.93
2017-03-15T10:39:33.374Z,12.98
2017-03-15T10:40:14.075Z,13
2017-03-15T10:40:54.655Z,12.9
2017-03-15T10:41:35.279Z,12.91
2017-03-15T10:42:15.933Z,12.95
2017-03-15T10:42:56.501Z,12.97
2017-03-15T10:43:37.158Z,13.12
2017-03-15T10:44:17.893Z,13.12
2017-03-15T10:44:58.477Z,13.15
2017-03-15T10:45:39.112Z,13.08
2017-03-15T10:46:19.750Z,13.09
2017-03-15T10:47:00.339Z,12.98
2017-03-15T10:47:40.993Z,12.94
2017-03-15T10:48:21.702Z,12.93
2017-03-15T10:49:02.260Z,12.85
2017-03-15T10:49:42.932Z,12.85
2017-03-15T10:50:23.664Z,12.83
2017-03-15T10:51:04.262Z,12.82
2017-03-15T10:51:44.993Z,12.76
2017-03-15T10:52:25.623Z,12.78
2017-03-15T10:53:06.198Z,12.78
2017-03-15T10:53:46.837Z,12.85
2017-03-15T10:54:27.483Z,12.75
2017-03-15T10:55:08.059Z,12.79
2017-03-15T10:55:48.711Z,12.79
2017-03-15T10:56:29.440Z,12.79
2017-03-15T10:57:10.095Z,12.76
2017-03-15T10:57:50.845Z,12.7
2017-03-15T10:58:31.504Z,12.67
2017-03-15T10:59:12.254Z,12.64
2017-03-15T10:59:52.907Z,12.78
2017-03-15T11:00:33.563Z,12.78
2017-03-15T11:01:14.214Z,12.79
2017-03-15T11:01:54.863Z,12.83
2017-03-15T11:02:35.522Z,12.82
2017-03-15T11:03:16.170Z,12.87
2017-03-15T11:03:56.825Z,12.95
2017-03-15T11:04:37.477Z,13.09
2017-03-15T11:05:18.129Z,13.03
2017-03-15T11:05:58.896Z,13.12
2017-03-15T11:06:39.539Z,13.11
2017-03-15T11:07:20.294Z,13.15
2017-03-15T11:08:01.044Z,13.11
2017-03-15T11:08:41.809Z,13.13
2017-03-15T11:09:22.565Z,13.04
2017-03-15T11:10:03.208Z,13.09
2017-03-15T11:10:43.868Z,13
2017-03-15T11:11:24.429Z,13.09
2017-03-15T11:12:05.095Z,13.04
2017-03-15T11:12:45.794Z,13.08
2017-03-15T11:13:26.480Z,13.04
2017-03-15T11:14:07.048Z,13.09
2017-03-15T11:14:47.690Z,13.12
2017-03-15T11:15:28.409Z,13.12
2017-03-15T11:16:09.086Z,13.12
2017-03-15T11:16:49.690Z,13.12
2017-03-15T11:17:30.423Z,13.18
2017-03-15T11:18:11.043Z,13.22
2017-03-15T11:18:51.631Z,13.27
2017-03-15T11:19:32.397Z,13.3
2017-03-15T11:20:13.115Z,13.35
2017-03-15T11:20:53.677Z,13.42
2017-03-15T11:21:34.338Z,13.38
2017-03-15T11:22:15.008Z,13.46
2017-03-15T11:22:55.751Z,13.6
2017-03-15T11:23:36.401Z,13.56
2017-03-15T11:24:17.042Z,13.7
2017-03-15T11:24:57.701Z,13.72
2017-03-15T11:25:38.451Z,13.85
2017-03-15T11:26:19.154Z,13.86
2017-03-15T11:26:59.799Z,13.89
2017-03-15T11:27:40.526Z,13.87
2017-03-15T11:28:21.120Z,13.95
2017-03-15T11:29:01.817Z,13.86
2017-03-15T11:29:42.528Z,13.79
2017-03-15T11:30:23.219Z,13.87
2017-03-15T11:31:03.812Z,13.87
2017-03-15T11:31:44.432Z,13.9
2017-03-15T11:32:25.188Z,13.89
2017-03-15T11:33:05.820Z,13.93
2017-03-15T11:33:46.471Z,13.97
2017-03-15T11:34:28.144Z,13.95
2017-03-15T11:35:08.802Z,13.96
2017-03-15T11:35:49.460Z,13.93
2017-03-15T11:36:30.107Z,13.9
2017-03-15T11:37:10.738Z,13.99
2017-03-15T11:37:51.306Z,13.97
2017-03-15T11:38:33.997Z,13.92
2017-03-15T11:39:14.641Z,13.87
2017-03-15T11:39:55.230Z,13.83
2017-03-15T11:40:35.862Z,13.75
2017-03-15T11:41:16.498Z,13.81
2017-03-15T11:41:57.151Z,13.83
2017-03-15T11:42:37.805Z,13.81
2017-03-15T11:43:18.462Z,13.87
2017-03-15T11:43:59.107Z,13.85
2017-03-15T11:44:40.785Z,13.86
2017-03-15T11:45:21.437Z,13.83
2017-03-15T11:46:02.092Z,13.85
2017-03-15T11:46:42.660Z,13.79
2017-03-15T11:47:23.325Z,13.77
2017-03-15T11:48:03.954Z,13.79
2017-03-15T11:48:44.530Z,13.81
2017-03-15T11:49:25.183Z,13.75
2017-03-15T11:50:06.827Z,13.71
2017-03-15T11:50:47.417Z,13.81
2017-03-15T11:51:28.039Z,13.79
2017-03-15T11:52:08.691Z,13.72
2017-03-15T11:52:49.343Z,13.67
2017-03-15T11:53:29.987Z,13.7
2017-03-15T11:54:10.648Z,13.67
2017-03-15T11:54:51.296Z,13.7
2017-03-15T11:55:31.949Z,13.72
2017-03-15T11:56:12.601Z,13.72
2017-03-15T11:56:57.964Z,13.72
2017-03-15T11:57:38.621Z,13.68
2017-03-15T11:58:19.282Z,13.67
2017-03-15T11:58:59.936Z,13.71
2017-03-15T11:59:40.581Z,13.71
2017-03-15T12:00:22.258Z,13.78
2017-03-15T12:01:03.021Z,13.74
2017-03-15T12:01:43.606Z,13.72
2017-03-15T12:02:24.233Z,13.7
2017-03-15T12:03:04.889Z,13.68
2017-03-15T12:03:45.546Z,13.72
2017-03-15T12:04:26.202Z,13.7
2017-03-15T12:05:06.853Z,13.75
2017-03-15T12:05:47.501Z,13.74
2017-03-15T12:06:28.143Z,13.86
2017-03-15T12:07:08.852Z,13.79
2017-03-15T12:07:49.542Z,13.87
2017-03-15T12:08:30.120Z,13.83
2017-03-15T12:09:10.756Z,13.83
2017-03-15T12:09:51.456Z,13.85
2017-03-15T12:10:32.150Z,13.74
2017-03-15T12:11:12.715Z,13.7
2017-03-15T12:11:53.360Z,13.68
2017-03-15T12:12:34.061Z,13.67
2017-03-15T12:13:14.685Z,13.7
2017-03-15T12:13:55.230Z,13.65
2017-03-15T12:14:35.903Z,13.67
2017-03-15T12:15:16.577Z,13.68
2017-03-15T12:15:57.277Z,13.68
2017-03-15T12:16:37.844Z,13.54
2017-03-15T12:17:18.509Z,13.54
2017-03-15T12:17:59.074Z,13.5
2017-03-15T12:18:39.633Z,13.42
2017-03-15T12:19:20.195Z,13.44
2017-03-15T12:20:00.910Z,13.39
2017-03-15T12:20:41.546Z,13.41
2017-03-15T12:21:22.119Z,13.38
2017-03-15T12:22:02.764Z,13.38
2017-03-15T12:22:43.463Z,13.39
2017-03-15T12:23:24.046Z,13.41
2017-03-15T12:24:04.618Z,13.3
2017-03-15T12:24:45.281Z,13.33
2017-03-15T12:25:28.006Z,13.23
2017-03-15T12:26:08.705Z,13.3
2017-03-15T12:26:49.265Z,13.25
2017-03-15T12:27:30.955Z,13.41
2017-03-15T12:28:11.649Z,13.47
2017-03-15T12:28:52.341Z,13.46
2017-03-15T12:29:32.915Z,13.47
2017-03-15T12:30:13.577Z,13.52
2017-03-15T12:30:54.255Z,13.52
2017-03-15T12:31:34.843Z,13.49
2017-03-15T12:32:15.535Z,13.56
2017-03-15T12:32:56.162Z,13.54
2017-03-15T12:33:36.721Z,13.52
2017-03-15T12:34:17.460Z,13.54
2017-03-15T12:34:58.115Z,13.49
2017-03-15T12:35:38.693Z,13.47
2017-03-15T12:36:19.355Z,13.49
2017-03-15T12:37:00.073Z,13.46
2017-03-15T12:37:40.735Z,13.49
2017-03-15T12:38:21.380Z,13.59
2017-03-15T12:39:02.036Z,13.57
2017-03-15T12:39:42.711Z,13.53
2017-03-15T12:40:23.340Z,13.6
2017-03-15T12:41:04.969Z,13.72
2017-03-15T12:41:46.356Z,13.68
2017-03-15T12:42:27.047Z,13.78
2017-03-15T12:43:07.726Z,13.78
2017-03-15T12:43:48.368Z,13.89
2017-03-15T12:44:29.059Z,13.79
2017-03-15T12:45:09.776Z,13.93
2017-03-15T12:45:50.415Z,13.9
2017-03-15T12:46:32.129Z,13.96
2017-03-15T12:47:12.798Z,13.92
2017-03-15T12:47:53.497Z,13.92
2017-03-15T12:48:34.085Z,13.89
2017-03-15T12:49:14.802Z,14.07
2017-03-15T12:49:55.522Z,14.11
2017-03-15T12:50:36.211Z,14.15
2017-03-15T12:51:16.785Z,14.14
2017-03-15T12:51:58.464Z,14.26
2017-03-15T12:52:39.163Z,14.18
2017-03-15T12:53:19.845Z,14.29
2017-03-15T12:54:00.398Z,14.3
2017-03-15T12:54:41.055Z,14.25
2017-03-15T12:55:21.747Z,14.29
2017-03-15T12:56:02.448Z,14.23
2017-03-15T12:56:43.024Z,14.25
2017-03-15T12:57:23.778Z,14.3
2017-03-15T12:58:04.460Z,14.41
2017-03-15T12:58:45.162Z,14.37
2017-03-15T12:59:25.737Z,14.47
2017-03-15T13:00:06.390Z,14.44
2017-03-15T13:00:47.201Z,14.36
2017-03-15T13:01:27.876Z,14.3
2017-03-15T13:02:08.455Z,14.25
2017-03-15T13:02:49.104Z,14.33
2017-03-15T13:03:29.747Z,14.25
2017-03-15T13:04:11.427Z,14.26
2017-03-15T13:04:52.081Z,14.29
2017-03-15T13:05:32.691Z,14.32
2017-03-15T13:06:13.357Z,14.35
2017-03-15T13:06:53.991Z,14.33
2017-03-15T13:07:34.598Z,14.29
2017-03-15T13:08:15.214Z,14.25
2017-03-15T13:08:55.848Z,14.2
2017-03-15T13:09:36.428Z,14.18
2017-03-15T13:10:17.077Z,14.22
2017-03-15T13:10:57.704Z,14.25
2017-03-15T13:11:38.304Z,14.22
2017-03-15T13:12:18.932Z,14.23
2017-03-15T13:12:59.559Z,14.15
2017-03-15T13:13:40.123Z,14.12
2017-03-15T13:14:20.792Z,14.22
2017-03-15T13:15:01.415Z,14.25
2017-03-15T13:15:41.997Z,14.23
2017-03-15T13:16:22.641Z,14.22
2017-03-15T13:17:03.276Z,14.23
2017-03-15T13:17:43.867Z,14.29
2017-03-15T13:18:24.423Z,14.29
2017-03-15T13:19:05.025Z,14.4
2017-03-15T13:19:45.628Z,14.37
2017-03-15T13:20:26.237Z,14.41
2017-03-15T13:21:06.837Z,14.28
2017-03-15T13:21:47.532Z,14.29
2017-03-15T13:22:28.103Z,14.18
2017-03-15T13:23:08.754Z,14.17
2017-03-15T13:23:49.451Z,14.17
2017-03-15T13:24:30.138Z,14.12
2017-03-15T13:25:10.745Z,14.11
2017-03-15T13:25:51.376Z,14.05
2017-03-15T13:26:32.057Z,13.93
2017-03-15T13:27:12.751Z,13.99
2017-03-15T13:27:53.396Z,13.87
2017-03-15T13:28:34.051Z,14
2017-03-15T13:29:14.711Z,14.03
2017-03-15T13:29:55.362Z,14.03
2017-03-15T13:30:36.012Z,14
2017-03-15T13:31:16.664Z,14.03
2017-03-15T13:31:57.261Z,13.99
2017-03-15T13:32:37.881Z,13.93
2017-03-15T13:33:18.539Z,13.92
2017-03-15T13:33:59.192Z,13.96
2017-03-15T13:34:39.840Z,13.95
2017-03-15T13:35:20.501Z,14
2017-03-15T13:36:01.153Z,13.99
2017-03-15T13:36:41.812Z,14.04
2017-03-15T13:37:22.476Z,13.89
2017-03-15T13:38:04.147Z,14
2017-03-15T13:38:44.782Z,13.99
2017-03-15T13:39:25.438Z,14.17
2017-03-15T13:40:06.030Z,14.05
2017-03-15T13:40:46.647Z,13.95
2017-03-15T13:41:27.297Z,13.93
2017-03-15T13:42:07.994Z,14
2017-03-15T13:42:48.677Z,13.85
2017-03-15T13:43:29.247Z,13.95
2017-03-15T13:44:09.910Z,13.96
2017-03-15T13:44:50.596Z,13.93
2017-03-15T13:45:31.191Z,13.92
2017-03-15T13:46:11.751Z,14
2017-03-15T13:46:52.405Z,13.96
2017-03-15T13:47:33.007Z,13.93
2017-03-15T13:48:13.601Z,13.92
2017-03-15T13:48:54.170Z,13.87
2017-03-15T13:49:34.813Z,13.85
2017-03-15T13:50:15.409Z,13.81
2017-03-15T13:50:55.999Z,13.85
2017-03-15T13:51:36.590Z,13.81
2017-03-15T13:52:17.222Z,13.85
2017-03-15T13:52:57.876Z,13.86
2017-03-15T13:53:38.529Z,13.83
2017-03-15T13:54:19.167Z,13.83
2017-03-15T13:54:59.826Z,13.87
2017-03-15T13:55:40.528Z,13.79
2017-03-15T13:56:21.137Z,13.89
2017-03-15T13:57:01.799Z,13.95
2017-03-15T13:57:44.431Z,13.92
2017-03-15T13:58:26.047Z,13.89
2017-03-15T13:59:06.616Z,13.86
2017-03-15T13:59:49.225Z,13.9
2017-03-15T14:00:30.839Z,13.87